Southern Pines, NC

4:48 PM EST on December 20, 2014 (GMT -0500)
Pope Field Airport | Change Station
CLOSE
Current Station
Airport
Location: Pope Field Airport,
Elevation: 217 ft
Nearby Weather Stations

Elev 217 ft 35.17 °N, 79.01 °W | Updated 3 minutes ago

Overcast
Overcast
39 °F
Feels Like 39 °F
N
2
Wind Variable Wind from ENE

Today
High -- | Low -- °F
--% Chance of Precip.
Yesterday
High -- | Low -- °F
Precip. -- in
7:21 AM 5:08 PM
Waning Crescent, 2% visible
Pressure 30.25 in
Visibility 10.0 miles
Clouds Scattered Clouds 800 ft
Mostly Cloudy 3300 ft
Dew Point 36 °F
Humidity 87%
Rainfall 0.05 in
Snow Depth Not available.
UV 0 out of 12
Pollen .50 out of 12
Air Quality Not available.
Flu Activity Not available.
SPECI KPOB 202145Z AUTO 07002KT 10SM SCT008 BKN033 04/02 A3025 RMK AO2 CIG 008 RWY05

More Conditions Fewer Conditions

Pressure 30.25 in
Visibility 10.0 miles
Clouds Scattered Clouds 800 ft
Mostly Cloudy 3300 ft
Dew Point 36 °F
Humidity 87%
Rainfall 0.05 in
Snow Depth Not available.
UV 0 out of 12
Pollen .50 out of 12
Air Quality Not available.
Flu Activity Not available.
SPECI KPOB 202145Z AUTO 07002KT 10SM SCT008 BKN033 04/02 A3025 RMK AO2 CIG 008 RWY05

More Conditions Fewer Conditions

10-Day Weather Forecast

Almanac

Astronomy

Dec. 20, 2014 Rise Set
Actual Time
Civil Twilight
Nautical Twilight
Astronomical Twilight
Moon
Length of Visible Light
Length of Day
Tomorrow will be .
, % of the Moon is Illuminated

Today's Extremes

State Highs State Lows

Community

WunderPhotos

Upload Photos

1,779,286 photos uploaded!

WunderBlogs® & News

Nearby

Air Quality

  Air Quality AQ Index Pollutant
Not available.

Snow Depth

Station Depth Elevation

Earthquake Activity

City Distance Mag. Time & Date
Minimum magnitude displayed is 2.5.

Coastal Water Temperatures

Place Temperature

Nearby Weather Stations